Time;durP1;ratioP1;P1;durP2;ratioP2;P2;SDS_P1;SDS_P2;PMS_P1;PMS_P2;Temp;Humidity;BMP_temperature;BMP_pressure;BME280_temperature;BME280_humidity;BME280_pressure;Samples;Min_cycle;Max_cycle;Signal;HPM_P1;HPM_P2
2023/05/31 00:01:16;;;;;;;0.40;0.40;;;9.80;99.90;;;;;;4942417;29;20071;-70
2023/05/31 00:03:43;;;;;;;0.50;0.50;;;9.70;99.90;;;;;;4932624;29;20048;-70
2023/05/31 00:06:11;;;;;;;0.73;0.73;;;9.60;99.90;;;;;;4947622;29;20094;-70
2023/05/31 00:08:38;;;;;;;0.60;0.60;;;9.60;99.90;;;;;;4935795;29;20859;-70
2023/05/31 00:11:05;;;;;;;1.10;0.95;;;9.60;99.90;;;;;;4940045;29;20456;-70
2023/05/31 00:13:31;;;;;;;0.60;0.60;;;9.50;99.90;;;;;;4932942;29;20044;-70
2023/05/31 00:15:57;;;;;;;0.45;0.45;;;9.50;99.90;;;;;;4942421;29;20051;-70
2023/05/31 00:18:22;;;;;;;0.63;0.60;;;9.40;99.90;;;;;;4942466;29;20412;-70
2023/05/31 00:20:48;;;;;;;1.20;1.00;;;9.30;99.90;;;;;;4935032;29;20564;-69
2023/05/31 00:23:13;;;;;;;0.88;0.88;;;9.30;99.90;;;;;;4935869;29;20070;-70
2023/05/31 00:25:39;;;;;;;1.02;1.02;;;9.20;99.90;;;;;;4942819;29;20082;-70
2023/05/31 00:28:05;;;;;;;1.50;0.65;;;9.20;99.90;;;;;;4936613;29;20079;-70
2023/05/31 00:30:30;;;;;;;0.98;0.98;;;9.20;99.90;;;;;;4941687;29;20411;-70
2023/05/31 00:32:56;;;;;;;1.05;0.98;;;9.20;99.90;;;;;;4945069;28;20477;-70
2023/05/31 00:35:21;;;;;;;0.45;0.45;;;9.30;99.90;;;;;;4945743;29;20054;-69
2023/05/31 00:37:47;;;;;;;0.47;0.47;;;9.30;99.90;;;;;;4941359;29;20071;-70
2023/05/31 00:40:13;;;;;;;0.73;0.73;;;9.30;99.90;;;;;;4943240;29;20051;-70
2023/05/31 00:42:38;;;;;;;1.65;1.55;;;9.30;99.90;;;;;;4944258;29;20170;-69
2023/05/31 00:45:07;;;;;;;0.50;0.50;;;9.30;99.90;;;;;;4937684;29;20418;-70
2023/05/31 00:47:35;;;;;;;1.17;1.02;;;9.40;99.90;;;;;;4941922;29;20139;-69
2023/05/31 00:50:00;;;;;;;0.55;0.55;;;9.30;99.90;;;;;;4944458;29;20050;-69
2023/05/31 00:52:28;;;;;;;0.57;0.57;;;9.40;99.90;;;;;;4938225;29;20040;-69
2023/05/31 00:54:54;;;;;;;0.85;0.85;;;9.30;99.90;;;;;;4932933;29;20059;-70
2023/05/31 00:57:20;;;;;;;0.98;0.98;;;9.30;99.90;;;;;;4944590;29;20094;-70
2023/05/31 00:59:46;;;;;;;1.95;1.38;;;9.30;99.90;;;;;;4943964;28;20539;-70
2023/05/31 01:02:12;;;;;;;0.30;0.30;;;9.30;99.90;;;;;;4945683;29;20078;-70
2023/05/31 01:04:39;;;;;;;0.30;0.30;;;9.30;99.90;;;;;;4931849;29;20051;-70
2023/05/31 01:07:05;;;;;;;0.85;0.85;;;9.30;99.90;;;;;;4944044;29;20070;-70
2023/05/31 01:09:31;;;;;;;0.47;0.47;;;9.20;99.90;;;;;;4945091;29;20044;-70
2023/05/31 01:12:13;;;;;;;0.45;0.45;;;9.20;99.90;;;;;;4933508;29;20055;-70
2023/05/31 01:15:01;;;;;;;0.50;0.50;;;9.20;99.90;;;;;;4936842;28;20083;-70
2023/05/31 01:17:41;;;;;;;0.60;0.60;;;9.20;99.90;;;;;;4937757;29;20504;-69
2023/05/31 01:20:11;;;;;;;0.47;0.47;;;9.20;99.90;;;;;;4931097;29;20054;-70
2023/05/31 01:22:56;;;;;;;0.68;0.68;;;9.20;99.90;;;;;;4931556;29;20036;-70
2023/05/31 01:25:47;;;;;;;0.60;0.60;;;9.10;99.90;;;;;;4935298;29;20083;-70
2023/05/31 01:28:15;;;;;;;1.15;1.15;;;9.10;99.90;;;;;;4928155;29;20082;-70
2023/05/31 01:30:44;;;;;;;;;;;9.10;99.90;;;;;;4933361;29;20051;-70
2023/05/31 01:33:11;;;;;;;2.45;1.95;;;9.00;99.90;;;;;;4938421;29;19981;-69
2023/05/31 01:35:37;;;;;;;1.65;0.65;;;9.00;99.90;;;;;;4932790;29;20123;-70
2023/05/31 01:38:02;;;;;;;0.50;0.50;;;9.00;99.90;;;;;;4934502;29;20155;-70
2023/05/31 01:40:29;;;;;;;1.13;1.08;;;9.00;99.90;;;;;;4937199;29;20075;-70
2023/05/31 01:42:55;;;;;;;0.30;0.30;;;9.00;99.90;;;;;;4934954;29;20058;-70
2023/05/31 01:45:22;;;;;;;0.40;0.40;;;9.00;99.90;;;;;;4940480;29;20039;-70
2023/05/31 01:47:49;;;;;;;0.50;0.50;;;9.00;99.90;;;;;;4932291;29;20044;-70
2023/05/31 01:50:18;;;;;;;1.45;1.35;;;9.00;99.90;;;;;;4941404;29;20123;-69
2023/05/31 01:52:43;;;;;;;;;;;9.00;99.90;;;;;;4935929;29;20148;-69
2023/05/31 01:55:09;;;;;;;1.92;1.70;;;8.90;99.90;;;;;;4944251;28;20304;-70
2023/05/31 01:57:39;;;;;;;0.75;0.75;;;8.90;99.90;;;;;;4927931;29;20051;-70
2023/05/31 02:00:11;;;;;;;1.95;0.85;;;9.00;99.90;;;;;;4939465;29;20082;-70
2023/05/31 02:02:40;;;;;;;0.70;0.70;;;8.90;99.90;;;;;;4939913;29;20169;-70
2023/05/31 02:05:11;;;;;;;;;;;8.90;99.90;;;;;;4938703;29;20039;-70
2023/05/31 02:07:37;;;;;;;0.50;0.45;;;9.00;99.90;;;;;;4934271;29;19949;-70
2023/05/31 02:10:04;;;;;;;0.40;0.40;;;8.90;99.90;;;;;;4931794;29;20039;-70
2023/05/31 02:12:29;;;;;;;0.55;0.55;;;9.00;99.90;;;;;;4937029;29;20046;-70
2023/05/31 02:14:55;;;;;;;0.50;0.50;;;9.00;99.90;;;;;;4941850;29;20125;-70
2023/05/31 02:17:24;;;;;;;1.65;0.93;;;9.00;99.90;;;;;;4943458;29;20131;-70
2023/05/31 02:19:51;;;;;;;0.35;0.35;;;9.00;99.90;;;;;;4927836;29;20066;-70
2023/05/31 02:22:17;;;;;;;0.30;0.30;;;8.90;99.90;;;;;;4936761;29;20048;-70
2023/05/31 02:24:43;;;;;;;0.30;0.30;;;8.90;99.90;;;;;;4943133;29;20043;-70
2023/05/31 02:27:09;;;;;;;0.40;0.40;;;8.90;99.90;;;;;;4942518;28;20050;-70
2023/05/31 02:29:35;;;;;;;0.45;0.45;;;8.90;99.90;;;;;;4928293;29;20460;-70
2023/05/31 02:32:01;;;;;;;1.20;0.80;;;8.90;99.90;;;;;;4939553;29;20043;-70
2023/05/31 02:34:27;;;;;;;0.40;0.40;;;8.90;99.90;;;;;;4940210;29;20036;-69
2023/05/31 02:36:53;;;;;;;0.93;0.93;;;8.80;99.90;;;;;;4942292;29;20090;-70
2023/05/31 02:39:18;;;;;;;1.02;0.40;;;8.80;99.90;;;;;;4940272;29;20122;-70
2023/05/31 02:41:44;;;;;;;0.60;0.60;;;8.80;99.90;;;;;;4933874;29;20079;-70
2023/05/31 02:44:10;;;;;;;1.00;1.00;;;8.70;99.90;;;;;;4937244;29;20078;-70
2023/05/31 02:46:36;;;;;;;0.40;0.40;;;8.70;99.90;;;;;;4927440;29;20551;-70
2023/05/31 02:49:02;;;;;;;0.55;0.55;;;8.70;99.90;;;;;;4939624;29;20082;-69
2023/05/31 02:51:28;;;;;;;0.95;0.95;;;8.60;99.90;;;;;;4933565;29;20119;-70
2023/05/31 02:53:53;;;;;;;0.40;0.40;;;8.60;99.90;;;;;;4939212;29;20530;-70
2023/05/31 02:56:20;;;;;;;0.93;0.93;;;8.60;99.90;;;;;;4934213;29;20074;-70
2023/05/31 02:58:46;;;;;;;0.50;0.50;;;8.60;99.90;;;;;;4939518;29;20047;-69
2023/05/31 03:01:12;;;;;;;1.20;1.20;;;8.50;99.90;;;;;;4944754;29;20043;-69
2023/05/31 03:03:37;;;;;;;0.50;0.50;;;8.50;99.90;;;;;;4937000;29;20044;-70
2023/05/31 03:06:04;;;;;;;0.60;0.60;;;8.50;99.90;;;;;;4931111;29;20099;-70
2023/05/31 03:08:30;;;;;;;0.93;0.50;;;8.50;99.90;;;;;;4942111;29;20123;-69
2023/05/31 03:10:56;;;;;;;0.40;0.40;;;8.50;99.90;;;;;;4938515;29;20047;-70
2023/05/31 03:13:22;;;;;;;0.60;0.60;;;8.50;99.90;;;;;;4938316;29;20039;-70
2023/05/31 03:15:47;;;;;;;0.52;0.40;;;8.50;99.90;;;;;;4922818;29;20040;-70
2023/05/31 03:18:13;;;;;;;0.40;0.40;;;8.50;99.90;;;;;;4943508;28;21216;-70
2023/05/31 03:20:39;;;;;;;0.50;0.50;;;8.40;99.90;;;;;;4939121;29;20065;-69
2023/05/31 03:23:06;;;;;;;0.63;0.63;;;8.40;99.90;;;;;;4935708;29;20039;-69
2023/05/31 03:25:32;;;;;;;0.30;0.30;;;8.40;99.90;;;;;;4938792;29;20039;-70
2023/05/31 03:27:58;;;;;;;0.30;0.30;;;8.40;99.90;;;;;;4938583;29;20051;-69
2023/05/31 03:30:24;;;;;;;0.30;0.30;;;8.40;99.90;;;;;;4930747;29;20058;-69
2023/05/31 03:32:49;;;;;;;0.47;0.47;;;8.40;99.90;;;;;;4938860;29;20095;-69
2023/05/31 03:35:15;;;;;;;0.20;0.20;;;8.40;99.90;;;;;;4929663;29;20126;-69
2023/05/31 03:37:40;;;;;;;0.35;0.35;;;8.40;99.90;;;;;;4940667;28;20040;-69
2023/05/31 03:40:07;;;;;;;0.30;0.30;;;8.40;99.90;;;;;;4946120;29;20503;-69
2023/05/31 03:42:33;;;;;;;0.43;0.43;;;8.40;99.90;;;;;;4938328;29;20055;-69
2023/05/31 03:44:58;;;;;;;0.52;0.52;;;8.40;99.90;;;;;;4943593;29;20040;-69
2023/05/31 03:47:24;;;;;;;0.70;0.70;;;8.40;99.90;;;;;;4944637;29;20047;-69
2023/05/31 03:49:50;;;;;;;0.30;0.30;;;8.40;99.90;;;;;;4941576;29;20072;-69
2023/05/31 03:52:15;;;;;;;0.40;0.40;;;8.50;99.90;;;;;;4933229;29;20043;-69
2023/05/31 03:54:41;;;;;;;0.38;0.38;;;8.50;99.90;;;;;;4933826;29;20048;-69
2023/05/31 03:57:07;;;;;;;0.40;0.40;;;8.60;99.90;;;;;;4932623;29;20047;-69
2023/05/31 03:59:34;;;;;;;0.52;0.52;;;8.70;99.90;;;;;;4938095;29;20070;-69
2023/05/31 04:01:59;;;;;;;0.45;0.45;;;8.80;99.90;;;;;;4941646;29;20466;-69
2023/05/31 04:04:25;;;;;;;0.40;0.40;;;8.90;99.90;;;;;;4940793;29;20045;-69
2023/05/31 04:06:52;;;;;;;0.40;0.40;;;9.00;99.90;;;;;;4939773;29;20158;-68
2023/05/31 04:09:17;;;;;;;0.80;0.80;;;9.20;99.90;;;;;;4931170;29;20110;-68
2023/05/31 04:11:43;;;;;;;0.30;0.30;;;9.40;99.90;;;;;;4930730;29;20151;-69
2023/05/31 04:14:09;;;;;;;0.47;0.47;;;9.60;99.90;;;;;;4941623;29;20053;-69
2023/05/31 04:16:35;;;;;;;0.77;0.77;;;9.80;99.90;;;;;;4943088;28;20039;-69
2023/05/31 04:19:00;;;;;;;1.38;1.23;;;10.10;99.90;;;;;;4945641;29;20047;-69
2023/05/31 04:21:26;;;;;;;0.50;0.50;;;10.60;99.90;;;;;;4944595;28;20109;-69
2023/05/31 04:23:52;;;;;;;0.38;0.38;;;10.70;99.90;;;;;;4942277;29;20039;-70
2023/05/31 04:26:18;;;;;;;0.45;0.45;;;10.60;99.90;;;;;;4930077;29;20066;-70
2023/05/31 04:28:45;;;;;;;0.40;0.40;;;10.50;99.90;;;;;;4946838;29;20051;-70
2023/05/31 04:31:12;;;;;;;0.77;0.77;;;10.30;99.90;;;;;;4932458;29;20498;-70
2023/05/31 04:33:38;;;;;;;0.60;0.60;;;10.20;99.90;;;;;;4936246;29;20090;-69
2023/05/31 04:36:04;;;;;;;0.35;0.35;;;10.20;99.90;;;;;;4938795;29;20592;-69
2023/05/31 04:38:32;;;;;;;0.60;0.60;;;10.40;99.90;;;;;;4940889;28;20047;-68
2023/05/31 04:41:00;;;;;;;1.33;1.33;;;10.40;99.90;;;;;;4939372;28;20325;-70
2023/05/31 04:43:26;;;;;;;0.88;0.88;;;10.30;99.90;;;;;;4933252;29;20090;-70
2023/05/31 04:45:52;;;;;;;1.15;1.15;;;10.40;99.90;;;;;;4940743;28;20085;-70
2023/05/31 04:48:19;;;;;;;0.77;0.77;;;10.50;99.90;;;;;;4939813;28;20043;-69
2023/05/31 04:50:46;;;;;;;0.65;0.63;;;10.60;99.90;;;;;;4936986;29;20040;-70
2023/05/31 04:53:12;;;;;;;0.40;0.40;;;10.60;99.90;;;;;;4943016;29;20505;-70
2023/05/31 04:55:38;;;;;;;0.75;0.75;;;10.60;99.90;;;;;;4943885;28;20118;-70
2023/05/31 04:58:04;;;;;;;0.40;0.40;;;10.70;99.90;;;;;;4932984;29;20062;-70
2023/05/31 05:00:29;;;;;;;0.25;0.25;;;10.80;99.90;;;;;;4935201;29;20047;-70
2023/05/31 05:02:56;;;;;;;0.30;0.30;;;10.90;99.90;;;;;;4944131;29;20134;-70
2023/05/31 05:05:23;;;;;;;0.80;0.80;;;10.90;99.90;;;;;;4936808;29;20161;-70
2023/05/31 05:07:49;;;;;;;0.40;0.40;;;10.90;99.90;;;;;;4942568;29;20122;-70
2023/05/31 05:10:15;;;;;;;0.50;0.50;;;10.90;99.90;;;;;;4942583;29;20448;-69
2023/05/31 05:12:40;;;;;;;0.93;0.93;;;10.80;99.90;;;;;;4943226;28;20043;-70
2023/05/31 05:15:07;;;;;;;0.50;0.50;;;10.80;99.90;;;;;;4940168;28;20045;-70
2023/05/31 05:17:33;;;;;;;0.73;0.73;;;10.90;99.90;;;;;;4930798;29;20131;-70
2023/05/31 05:19:59;;;;;;;0.47;0.47;;;10.90;99.90;;;;;;4936962;29;20126;-69
2023/05/31 05:22:24;;;;;;;0.40;0.40;;;11.00;99.90;;;;;;4938522;29;20516;-69
2023/05/31 05:24:50;;;;;;;1.23;1.15;;;11.00;99.90;;;;;;4937279;28;20050;-69
2023/05/31 05:27:16;;;;;;;1.60;1.10;;;11.00;99.90;;;;;;4930860;29;20044;-69
2023/05/31 05:29:41;;;;;;;0.40;0.40;;;11.10;99.90;;;;;;4937919;29;20126;-69
2023/05/31 05:32:07;;;;;;;0.40;0.40;;;11.10;99.90;;;;;;4939068;29;20048;-69
2023/05/31 05:34:33;;;;;;;0.60;0.60;;;11.20;99.90;;;;;;4931791;29;20043;-69
2023/05/31 05:36:58;;;;;;;0.90;0.90;;;11.30;99.90;;;;;;4938219;29;20047;-69
2023/05/31 05:39:24;;;;;;;0.40;0.40;;;11.40;99.90;;;;;;4930971;29;20050;-69
2023/05/31 05:41:50;;;;;;;0.85;0.85;;;11.70;99.90;;;;;;4927999;29;20552;-69
2023/05/31 05:44:15;;;;;;;1.33;1.33;;;12.20;99.90;;;;;;4939626;29;20397;-69
2023/05/31 05:46:41;;;;;;;0.47;0.47;;;12.40;99.90;;;;;;4940014;29;20170;-70
2023/05/31 05:49:06;;;;;;;0.63;0.63;;;12.50;99.90;;;;;;4931834;29;20043;-70
2023/05/31 05:51:32;;;;;;;0.75;0.75;;;12.50;99.90;;;;;;4925986;29;20063;-70
2023/05/31 05:53:58;;;;;;;0.80;0.80;;;12.50;99.90;;;;;;4927824;28;20044;-70
2023/05/31 05:56:23;;;;;;;3.13;2.00;;;12.50;99.90;;;;;;4929167;29;20048;-70
2023/05/31 05:58:49;;;;;;;2.85;1.25;;;12.50;99.90;;;;;;4936246;29;20054;-70
2023/05/31 06:01:22;;;;;;;1.20;1.20;;;12.50;99.90;;;;;;4941568;28;20051;-70
2023/05/31 06:03:49;;;;;;;0.52;0.50;;;12.60;99.90;;;;;;4932024;29;20043;-70
2023/05/31 06:06:16;;;;;;;1.38;1.27;;;12.70;99.90;;;;;;4937139;28;20093;-70
2023/05/31 06:08:45;;;;;;;2.88;1.52;;;12.80;99.90;;;;;;4929032;29;20048;-70
2023/05/31 06:11:11;;;;;;;1.15;0.80;;;12.90;99.90;;;;;;4931960;28;20043;-70
2023/05/31 06:13:37;;;;;;;1.30;1.20;;;13.00;99.90;;;;;;4929062;29;20505;-70
2023/05/31 06:16:05;;;;;;;0.80;0.80;;;13.00;99.90;;;;;;4937418;29;20040;-70
2023/05/31 06:18:31;;;;;;;0.63;0.63;;;13.10;99.90;;;;;;4931056;29;20086;-70
2023/05/31 06:20:56;;;;;;;0.90;0.90;;;13.20;99.90;;;;;;4933224;29;20449;-70
2023/05/31 06:23:22;;;;;;;1.98;1.65;;;13.30;99.90;;;;;;4938692;29;20070;-70
2023/05/31 06:25:48;;;;;;;2.17;2.08;;;13.40;99.90;;;;;;4936990;29;20393;-70
2023/05/31 06:28:13;;;;;;;3.60;2.22;;;13.50;99.90;;;;;;4929851;29;20039;-70
2023/05/31 06:30:39;;;;;;;1.45;1.35;;;13.60;99.90;;;;;;4936745;29;20453;-70
2023/05/31 06:33:04;;;;;;;1.65;1.55;;;13.70;99.90;;;;;;4935256;29;20043;-70
2023/05/31 06:35:30;;;;;;;1.60;1.50;;;13.80;99.90;;;;;;4937688;29;20188;-71
2023/05/31 06:37:56;;;;;;;0.85;0.85;;;13.90;99.90;;;;;;4931578;29;20044;-71
2023/05/31 06:40:22;;;;;;;1.02;1.02;;;14.10;99.90;;;;;;4939300;29;20513;-70
2023/05/31 06:42:47;;;;;;;3.10;1.60;;;14.20;99.90;;;;;;4933779;29;20170;-70
2023/05/31 06:45:13;;;;;;;1.25;1.25;;;14.40;99.90;;;;;;4931714;29;20166;-71
2023/05/31 06:47:39;;;;;;;1.25;1.25;;;14.50;99.90;;;;;;4914990;29;20051;-71
2023/05/31 06:50:05;;;;;;;2.83;1.75;;;14.60;99.90;;;;;;4939953;29;20197;-70
2023/05/31 06:52:31;;;;;;;3.05;0.95;;;14.80;99.90;;;;;;4942783;29;20058;-71
2023/05/31 06:54:56;;;;;;;0.85;0.85;;;15.00;99.90;;;;;;4940377;29;20041;-70
2023/05/31 06:57:22;;;;;;;1.60;1.50;;;15.20;99.90;;;;;;4933716;29;20650;-70
2023/05/31 06:59:47;;;;;;;0.90;0.90;;;15.30;99.90;;;;;;4931248;29;20048;-70
2023/05/31 07:02:13;;;;;;;0.50;0.50;;;15.50;99.90;;;;;;4937814;29;20530;-71
2023/05/31 07:04:39;;;;;;;1.50;0.95;;;15.60;99.90;;;;;;4939599;29;20078;-71
2023/05/31 07:07:05;;;;;;;4.18;1.40;;;15.90;99.90;;;;;;4940868;29;20416;-70
2023/05/31 07:09:30;;;;;;;1.08;1.05;;;16.10;99.90;;;;;;4936762;28;20043;-71
2023/05/31 07:11:56;;;;;;;1.58;1.48;;;16.30;99.90;;;;;;4931741;29;20067;-71
2023/05/31 07:14:22;;;;;;;1.27;1.17;;;16.50;99.90;;;;;;4936619;29;20146;-71
2023/05/31 07:16:49;;;;;;;1.50;1.25;;;16.60;99.90;;;;;;4928582;29;20099;-71
2023/05/31 07:19:16;;;;;;;1.27;1.20;;;16.80;99.90;;;;;;4931317;29;20097;-71
2023/05/31 07:21:41;;;;;;;1.80;1.70;;;16.90;99.90;;;;;;4941952;29;20777;-71
2023/05/31 07:24:09;;;;;;;2.08;1.55;;;17.10;99.90;;;;;;4940114;29;20497;-70
2023/05/31 07:26:35;;;;;;;0.50;0.50;;;17.20;99.90;;;;;;4939354;29;20058;-71
2023/05/31 07:29:00;;;;;;;1.50;1.40;;;17.40;99.90;;;;;;4937064;29;20055;-71
2023/05/31 07:31:26;;;;;;;0.55;0.55;;;17.60;99.90;;;;;;4932526;29;20066;-71
2023/05/31 07:33:52;;;;;;;0.50;0.50;;;17.80;99.90;;;;;;4938050;29;20094;-71
2023/05/31 07:36:18;;;;;;;2.35;2.10;;;17.90;99.90;;;;;;4931565;29;20493;-71
2023/05/31 07:38:43;;;;;;;1.48;1.38;;;18.10;99.90;;;;;;4939574;29;20134;-71
2023/05/31 07:41:10;;;;;;;1.13;1.13;;;18.10;99.90;;;;;;4940450;29;20055;-71
2023/05/31 07:43:36;;;;;;;1.27;1.23;;;18.10;99.90;;;;;;4947875;29;20045;-71
2023/05/31 07:46:02;;;;;;;1.35;1.27;;;18.20;99.90;;;;;;4932830;29;20106;-71
2023/05/31 07:48:28;;;;;;;1.38;1.27;;;18.40;99.90;;;;;;4936122;29;20059;-71
2023/05/31 07:50:54;;;;;;;0.60;0.60;;;18.50;99.90;;;;;;4940133;29;20063;-71
2023/05/31 07:53:20;;;;;;;1.50;1.42;;;18.70;99.90;;;;;;4929703;29;20044;-71
2023/05/31 07:55:45;;;;;;;0.90;0.88;;;18.70;99.90;;;;;;4929779;29;20050;-71
2023/05/31 07:58:11;;;;;;;1.17;0.70;;;18.70;99.90;;;;;;4926515;29;20052;-71
2023/05/31 08:00:40;;;;;;;1.27;1.25;;;18.90;99.90;;;;;;4935883;29;20118;-71
2023/05/31 08:03:05;;;;;;;0.90;0.90;;;19.00;99.90;;;;;;4940181;28;20051;-71
2023/05/31 08:05:32;;;;;;;1.10;1.02;;;19.20;99.90;;;;;;4928961;29;20583;-71
2023/05/31 08:07:59;;;;;;;1.50;0.90;;;19.30;99.90;;;;;;4928095;29;20044;-71
2023/05/31 08:10:24;;;;;;;0.80;0.80;;;19.20;99.90;;;;;;4932697;29;20056;-71
2023/05/31 08:12:50;;;;;;;4.00;1.80;;;19.20;99.90;;;;;;4931855;29;20106;-71
2023/05/31 08:15:16;;;;;;;2.55;2.35;;;19.20;99.90;;;;;;4930758;29;20178;-71
2023/05/31 08:17:43;;;;;;;0.80;0.80;;;19.30;99.90;;;;;;4928312;29;20031;-71
2023/05/31 08:20:13;;;;;;;0.75;0.75;;;19.40;99.90;;;;;;4930778;29;20501;-71
2023/05/31 08:22:41;;;;;;;0.77;0.77;;;19.60;99.90;;;;;;4930212;29;20408;-71
2023/05/31 08:25:07;;;;;;;1.08;0.82;;;19.70;99.90;;;;;;4932425;28;20075;-71
2023/05/31 08:27:33;;;;;;;0.82;0.82;;;19.90;99.90;;;;;;4928781;29;20405;-71
2023/05/31 08:29:58;;;;;;;0.98;0.98;;;20.10;97.90;;;;;;4929172;29;20123;-71
2023/05/31 08:32:24;;;;;;;0.30;0.30;;;20.30;97.10;;;;;;4935028;29;20051;-71
2023/05/31 08:34:49;;;;;;;3.38;1.85;;;20.40;94.60;;;;;;4936155;29;20078;-71
2023/05/31 08:37:15;;;;;;;8.20;1.33;;;20.40;96.10;;;;;;4931546;29;20082;-71
2023/05/31 08:39:41;;;;;;;0.43;0.43;;;20.50;93.70;;;;;;4926066;29;20567;-71
2023/05/31 08:42:18;;;;;;;1.08;1.02;;;20.50;93.20;;;;;;4935618;29;20051;-72
2023/05/31 08:44:44;;;;;;;2.50;0.75;;;20.60;93.30;;;;;;4929226;29;20113;-71
2023/05/31 08:47:19;;;;;;;0.68;0.68;;;20.50;93.70;;;;;;4943213;29;20047;-71
2023/05/31 08:49:46;;;;;;;3.53;1.50;;;20.60;91.80;;;;;;4931242;29;20047;-71
2023/05/31 08:52:12;;;;;;;1.67;1.58;;;20.70;92.70;;;;;;4939009;29;20047;-71
2023/05/31 08:54:39;;;;;;;0.65;0.65;;;20.60;91.40;;;;;;4932663;28;20392;-71
2023/05/31 08:57:06;;;;;;;0.45;0.43;;;20.60;90.60;;;;;;4931616;29;20083;-71
2023/05/31 08:59:34;;;;;;;1.70;1.60;;;20.80;88.20;;;;;;4932008;29;20071;-70
2023/05/31 09:02:01;;;;;;;0.80;0.77;;;21.00;91.80;;;;;;4932069;29;20240;-70
2023/05/31 09:04:26;;;;;;;0.95;0.95;;;21.10;89.70;;;;;;4937569;29;20102;-70
2023/05/31 09:06:52;;;;;;;1.85;1.70;;;21.20;89.90;;;;;;4933434;29;20102;-70
2023/05/31 09:09:18;;;;;;;0.93;0.93;;;21.00;90.80;;;;;;4934411;29;20066;-70
2023/05/31 09:11:45;;;;;;;0.93;0.60;;;21.00;90.00;;;;;;4933937;29;20103;-70
2023/05/31 09:14:11;;;;;;;0.40;0.40;;;21.20;87.70;;;;;;4940116;29;20149;-70
2023/05/31 09:16:37;;;;;;;0.50;0.50;;;21.70;90.80;;;;;;4938162;29;20428;-71
2023/05/31 09:19:06;;;;;;;0.55;0.55;;;21.90;84.10;;;;;;4927930;29;20528;-71
2023/05/31 09:21:39;;;;;;;0.55;0.55;;;22.20;83.50;;;;;;4937765;29;20521;-71
2023/05/31 09:24:05;;;;;;;0.85;0.85;;;22.30;82.60;;;;;;4941334;29;20526;-71
2023/05/31 09:26:32;;;;;;;0.43;0.43;;;22.40;86.00;;;;;;4934764;29;20052;-71
2023/05/31 09:28:59;;;;;;;1.17;1.17;;;22.50;82.20;;;;;;4939293;29;20409;-71
2023/05/31 09:31:25;;;;;;;0.82;0.82;;;22.50;83.80;;;;;;4934559;29;20055;-71
2023/05/31 09:33:53;;;;;;;0.77;0.77;;;22.60;85.00;;;;;;4937547;29;20122;-71
2023/05/31 09:36:31;;;;;;;1.33;0.50;;;22.60;82.70;;;;;;4931525;28;20044;-71
2023/05/31 09:39:05;;;;;;;0.57;0.57;;;22.80;80.80;;;;;;4905336;29;20503;-70
2023/05/31 09:41:32;;;;;;;1.35;1.30;;;23.10;80.20;;;;;;4929512;29;20405;-71
2023/05/31 09:43:57;;;;;;;1.35;0.63;;;23.10;76.20;;;;;;4931758;29;20095;-71
2023/05/31 09:46:24;;;;;;;0.60;0.60;;;23.10;76.40;;;;;;4932607;29;20563;-71
2023/05/31 09:49:06;;;;;;;0.47;0.47;;;23.00;72.70;;;;;;4940152;29;20054;-71
2023/05/31 09:51:33;;;;;;;0.73;0.73;;;22.90;76.90;;;;;;4936733;29;20516;-71
2023/05/31 09:54:08;;;;;;;2.70;1.35;;;22.80;77.60;;;;;;4932064;29;20044;-71
2023/05/31 09:56:37;;;;;;;2.05;1.85;;;22.70;76.40;;;;;;4931136;29;20051;-71
2023/05/31 09:59:04;;;;;;;1.58;1.13;;;22.70;78.80;;;;;;4932457;29;20051;-71
2023/05/31 10:01:31;;;;;;;1.50;1.42;;;22.70;78.50;;;;;;4940433;28;20083;-71
2023/05/31 10:03:59;;;;;;;5.10;3.10;;;22.40;79.10;;;;;;4928752;29;20043;-71
2023/05/31 10:06:26;;;;;;;2.95;2.58;;;22.40;79.60;;;;;;4940736;29;20162;-72
2023/05/31 10:08:51;;;;;;;1.17;0.87;;;22.40;79.10;;;;;;4934235;29;20046;-71
2023/05/31 10:11:22;;;;;;;1.02;0.85;;;22.50;80.80;;;;;;4936955;29;20408;-71
2023/05/31 10:13:50;;;;;;;1.58;1.48;;;22.60;78.70;;;;;;4934779;29;20409;-71
2023/05/31 10:16:18;;;;;;;0.85;0.85;;;22.80;81.60;;;;;;4931006;29;20067;-71
2023/05/31 10:18:48;;;;;;;1.42;1.38;;;23.10;82.00;;;;;;4939403;29;20055;-72
2023/05/31 10:21:25;;;;;;;1.50;1.40;;;23.30;74.40;;;;;;4921483;29;20474;-71
2023/05/31 10:24:02;;;;;;;0.63;0.63;;;23.50;75.60;;;;;;4934385;29;20039;-71
2023/05/31 10:26:53;;;;;;;0.90;0.90;;;23.70;80.40;;;;;;4930176;29;20048;-71
2023/05/31 10:29:43;;;;;;;0.75;0.75;;;24.10;77.40;;;;;;4927845;29;20056;-71
2023/05/31 10:32:22;;;;;;;0.98;0.68;;;24.30;73.10;;;;;;4933017;29;20051;-71
2023/05/31 10:34:50;;;;;;;1.35;1.25;;;24.20;72.70;;;;;;4929352;29;20043;-71
2023/05/31 10:37:17;;;;;;;0.82;0.82;;;24.00;75.10;;;;;;4929963;29;20126;-70
2023/05/31 10:40:23;;;;;;;1.05;0.93;;;24.10;80.90;;;;;;4933938;29;20564;-72
2023/05/31 10:43:03;;;;;;;0.90;0.90;;;24.00;78.30;;;;;;4928232;29;20044;-72
2023/05/31 10:45:37;;;;;;;0.60;0.60;;;23.40;78.70;;;;;;4934062;29;20130;-71
2023/05/31 10:48:39;;;;;;;0.50;0.50;;;22.80;81.20;;;;;;4939132;29;20131;-71
2023/05/31 10:51:06;;;;;;;0.75;0.75;;;22.60;84.40;;;;;;4938960;29;20051;-72
2023/05/31 10:53:37;;;;;;;1.40;1.30;;;22.60;85.50;;;;;;4930500;29;20058;-72
2023/05/31 10:56:10;;;;;;;0.68;0.68;;;22.60;85.40;;;;;;4931998;28;20594;-71
2023/05/31 10:58:47;;;;;;;0.70;0.70;;;22.80;84.00;;;;;;4930133;29;20056;-71
2023/05/31 11:01:15;;;;;;;1.90;1.65;;;23.10;86.70;;;;;;4932522;29;20178;-72
2023/05/31 11:03:52;;;;;;;1.15;1.13;;;23.10;84.00;;;;;;4938104;29;20048;-72
2023/05/31 11:06:26;;;;;;;;;;;23.10;84.10;;;;;;4942923;28;20071;-70
2023/05/31 11:09:00;;;;;;;0.60;0.60;;;23.30;83.60;;;;;;4933180;29;20423;-71
2023/05/31 11:11:33;;;;;;;1.08;1.08;;;23.30;83.40;;;;;;4941907;28;20090;-71
2023/05/31 11:14:07;;;;;;;2.70;1.42;;;23.60;83.10;;;;;;4931229;29;20047;-71
2023/05/31 11:16:53;;;;;;;1.38;1.27;;;23.80;84.50;;;;;;4942016;28;20105;-71
2023/05/31 11:19:29;;;;;;;1.27;1.27;;;23.90;80.70;;;;;;4931020;29;20039;-71
2023/05/31 11:22:08;;;;;;;0.60;0.60;;;23.90;79.80;;;;;;4912292;29;20063;-71
2023/05/31 11:24:39;;;;;;;2.33;1.88;;;23.70;79.00;;;;;;4937032;29;20052;-72
2023/05/31 11:27:10;;;;;;;1.55;1.45;;;23.40;79.10;;;;;;4930370;29;20047;-71
2023/05/31 11:29:47;;;;;;;0.75;0.75;;;23.50;82.00;;;;;;4939937;29;20410;-71
2023/05/31 11:32:14;;;;;;;0.73;0.73;;;23.80;79.80;;;;;;4941351;29;20129;-70
2023/05/31 11:34:57;;;;;;;1.43;1.33;;;23.70;78.90;;;;;;4932220;29;20043;-71
2023/05/31 11:37:27;;;;;;;1.45;1.35;;;23.50;77.30;;;;;;4928321;29;20122;-71
2023/05/31 11:39:55;;;;;;;0.90;0.90;;;23.50;77.10;;;;;;4928271;29;20051;-71
2023/05/31 11:42:21;;;;;;;;;;;23.40;77.20;;;;;;4931151;29;20043;-71
2023/05/31 11:44:47;;;;;;;1.20;1.20;;;23.30;78.40;;;;;;4938441;29;19929;-71
2023/05/31 11:47:20;;;;;;;2.05;1.27;;;23.50;78.30;;;;;;4931852;29;20055;-71
2023/05/31 11:49:47;;;;;;;0.68;0.68;;;23.50;78.50;;;;;;4941679;28;20171;-71
2023/05/31 11:52:17;;;;;;;0.75;0.73;;;23.50;79.00;;;;;;4933965;29;20044;-71
2023/05/31 11:54:45;;;;;;;0.85;0.85;;;23.70;81.20;;;;;;4945834;28;20036;-71
2023/05/31 11:57:12;;;;;;;1.20;0.88;;;23.90;79.90;;;;;;4931519;29;20134;-71
2023/05/31 11:59:39;;;;;;;0.82;0.82;;;23.90;77.80;;;;;;4937853;29;20054;-70
2023/05/31 12:02:06;;;;;;;1.33;1.30;;;23.90;76.70;;;;;;4935537;29;20064;-71
2023/05/31 12:04:40;;;;;;;1.60;1.52;;;23.90;76.10;;;;;;4938453;29;20130;-71
2023/05/31 12:07:19;;;;;;;0.75;0.75;;;24.10;78.80;;;;;;4930224;29;20102;-71
2023/05/31 12:09:46;;;;;;;1.55;0.80;;;24.20;73.50;;;;;;4932222;29;20051;-71
2023/05/31 12:12:12;;;;;;;0.57;0.57;;;23.90;74.10;;;;;;4934810;29;20084;-71
2023/05/31 12:14:37;;;;;;;1.38;1.27;;;23.90;74.20;;;;;;4937846;29;20039;-71
2023/05/31 12:17:04;;;;;;;1.52;0.88;;;23.90;74.40;;;;;;4937791;28;20054;-71
2023/05/31 12:19:31;;;;;;;0.98;0.98;;;23.90;75.30;;;;;;4934470;29;20044;-71
2023/05/31 12:21:57;;;;;;;0.60;0.60;;;24.20;77.10;;;;;;4939304;29;20054;-71
2023/05/31 12:24:23;;;;;;;0.85;0.85;;;24.40;74.10;;;;;;4935485;29;20051;-71
2023/05/31 12:26:48;;;;;;;8.07;1.60;;;24.30;73.70;;;;;;4933627;29;20046;-71
2023/05/31 12:29:15;;;;;;;0.43;0.43;;;24.10;73.50;;;;;;4939343;29;20098;-71
2023/05/31 12:31:41;;;;;;;2.72;1.35;;;24.20;74.90;;;;;;4935298;29;20123;-72
2023/05/31 12:34:12;;;;;;;0.45;0.45;;;24.40;73.00;;;;;;4940725;29;20115;-71
2023/05/31 12:36:41;;;;;;;0.55;0.55;;;24.40;70.70;;;;;;4935348;29;20063;-71
2023/05/31 12:39:18;;;;;;;1.45;1.40;;;24.50;73.60;;;;;;4937735;29;20047;-71
2023/05/31 12:41:45;;;;;;;1.95;1.08;;;24.40;71.00;;;;;;4939763;28;20043;-71
2023/05/31 12:44:17;;;;;;;2.03;1.33;;;24.50;72.40;;;;;;4936381;29;20051;-71
2023/05/31 12:46:44;;;;;;;2.40;1.60;;;24.20;69.30;;;;;;4939045;29;20535;-72
2023/05/31 12:49:15;;;;;;;1.77;1.67;;;24.00;70.10;;;;;;4937897;28;20055;-72
2023/05/31 12:51:42;;;;;;;1.50;1.40;;;23.80;70.50;;;;;;4934001;29;20307;-72
2023/05/31 12:54:20;;;;;;;2.10;1.25;;;23.40;74.20;;;;;;4940117;29;20043;-72